createdAt,value
2022-12-16T00:01:23.018Z,4.20
2022-12-16T00:03:49.563Z,4.10
2022-12-16T00:06:17.280Z,4.10
2022-12-16T00:08:41.813Z,4.20
2022-12-16T00:11:06.942Z,4.10
2022-12-16T00:13:34.259Z,4.10
2022-12-16T00:15:59.873Z,4.20
2022-12-16T00:18:25.387Z,4.20
2022-12-16T00:20:51.135Z,4.20
2022-12-16T00:23:16.614Z,4.30
2022-12-16T00:25:42.701Z,4.30
2022-12-16T00:28:07.197Z,4.30
2022-12-16T00:30:35.163Z,4.30
2022-12-16T00:32:59.704Z,4.40
2022-12-16T00:35:24.023Z,4.40
2022-12-16T00:37:48.912Z,4.40
2022-12-16T00:40:13.781Z,4.40
2022-12-16T00:42:38.280Z,4.10
2022-12-16T00:45:02.894Z,3.90
2022-12-16T00:47:28.876Z,3.90
2022-12-16T00:49:53.353Z,4.00
2022-12-16T00:52:19.334Z,3.80
2022-12-16T00:54:43.679Z,3.80
2022-12-16T00:57:08.275Z,3.60
2022-12-16T00:59:32.802Z,3.50
2022-12-16T01:01:57.276Z,3.60
2022-12-16T01:04:26.732Z,3.60
2022-12-16T01:06:51.164Z,3.50
2022-12-16T01:09:16.578Z,3.60
2022-12-16T01:11:41.026Z,3.70
2022-12-16T01:14:05.339Z,3.80
2022-12-16T01:16:30.056Z,3.80
2022-12-16T01:18:56.434Z,3.80
2022-12-16T01:21:22.376Z,3.80
2022-12-16T01:23:48.491Z,3.80
2022-12-16T01:26:18.154Z,3.90
2022-12-16T01:28:42.478Z,3.90
2022-12-16T01:31:07.993Z,3.80
2022-12-16T01:33:34.568Z,3.60
2022-12-16T01:36:03.209Z,3.50
2022-12-16T01:38:29.546Z,3.50
2022-12-16T01:40:55.150Z,3.40
2022-12-16T01:43:21.565Z,3.50
2022-12-16T01:45:45.988Z,3.50
2022-12-16T01:48:21.658Z,3.40
2022-12-16T01:50:46.668Z,3.50
2022-12-16T01:53:11.327Z,3.60
2022-12-16T01:55:42.799Z,3.60
2022-12-16T01:58:10.902Z,3.50
2022-12-16T02:00:36.246Z,3.40
2022-12-16T02:03:02.025Z,3.50
2022-12-16T02:05:26.771Z,3.50
2022-12-16T02:08:01.213Z,3.60
2022-12-16T02:10:34.406Z,3.70
2022-12-16T02:13:07.135Z,3.60
2022-12-16T02:15:40.854Z,3.50
2022-12-16T02:18:15.629Z,3.50
2022-12-16T02:21:16.910Z,3.50
2022-12-16T02:24:17.953Z,3.60
2022-12-16T02:27:06.085Z,3.60
2022-12-16T02:30:05.438Z,3.60
2022-12-16T02:32:40.653Z,3.40
2022-12-16T02:35:11.322Z,3.40
2022-12-16T02:37:43.475Z,3.40
2022-12-16T02:40:16.693Z,3.40
2022-12-16T02:42:46.561Z,3.40
2022-12-16T02:45:17.231Z,3.30
2022-12-16T02:47:43.072Z,3.20
2022-12-16T02:50:16.080Z,3.20
2022-12-16T02:52:40.567Z,3.20
2022-12-16T02:55:09.302Z,3.20
2022-12-16T02:58:06.303Z,3.20
2022-12-16T03:00:37.325Z,3.10
2022-12-16T03:03:08.076Z,3.10
2022-12-16T03:05:36.399Z,3.10
2022-12-16T03:08:05.131Z,3.20
2022-12-16T03:10:33.824Z,3.20
2022-12-16T03:13:03.507Z,3.20
2022-12-16T03:15:32.244Z,3.30
2022-12-16T03:17:58.714Z,3.20
2022-12-16T03:20:29.179Z,3.30
2022-12-16T03:22:55.931Z,3.20
2022-12-16T03:25:22.453Z,3.00
2022-12-16T03:27:57.089Z,3.10
2022-12-16T03:30:26.925Z,3.20
2022-12-16T03:32:58.522Z,3.20
2022-12-16T03:35:28.608Z,3.20
2022-12-16T03:37:57.666Z,3.20
2022-12-16T03:40:23.253Z,3.10
2022-12-16T03:42:48.465Z,3.10
2022-12-16T03:45:18.133Z,3.20
2022-12-16T03:47:42.687Z,3.20
2022-12-16T03:50:09.241Z,3.30
2022-12-16T03:52:35.220Z,3.20
2022-12-16T03:54:59.913Z,3.20
2022-12-16T03:57:24.275Z,3.20
2022-12-16T03:59:48.609Z,3.20
2022-12-16T04:02:13.112Z,3.20
2022-12-16T04:04:37.667Z,3.10
2022-12-16T04:07:19.136Z,3.10
2022-12-16T04:09:45.103Z,3.00
2022-12-16T04:12:27.376Z,3.00
2022-12-16T04:15:09.346Z,3.00
2022-12-16T04:17:51.245Z,3.00
2022-12-16T04:20:34.998Z,3.00
2022-12-16T04:23:17.250Z,3.00
2022-12-16T04:25:43.196Z,3.10
2022-12-16T04:28:07.643Z,3.00
2022-12-16T04:30:35.266Z,3.00
2022-12-16T04:33:20.079Z,3.00
2022-12-16T04:36:02.145Z,2.90
2022-12-16T04:38:44.255Z,2.90
2022-12-16T04:41:27.239Z,2.90
2022-12-16T04:44:09.085Z,2.90
2022-12-16T04:46:50.958Z,2.90
2022-12-16T04:49:32.955Z,2.90
2022-12-16T04:52:14.894Z,3.00
2022-12-16T04:54:56.952Z,2.90
2022-12-16T04:57:39.834Z,2.90
2022-12-16T05:00:22.377Z,2.90
2022-12-16T05:03:18.732Z,3.10
2022-12-16T05:06:00.575Z,3.10
2022-12-16T05:08:42.442Z,3.00
2022-12-16T05:11:24.551Z,3.10
2022-12-16T05:14:07.992Z,3.00
2022-12-16T05:16:50.004Z,3.00
2022-12-16T05:19:32.091Z,3.00
2022-12-16T05:22:13.797Z,3.00
2022-12-16T05:24:55.634Z,2.90
2022-12-16T05:27:37.401Z,2.90
2022-12-16T05:30:20.906Z,3.00
2022-12-16T05:33:02.707Z,2.90
2022-12-16T05:35:44.609Z,2.90
2022-12-16T05:38:26.738Z,3.00
2022-12-16T05:41:08.538Z,3.00
2022-12-16T05:43:50.604Z,3.00
2022-12-16T05:46:33.796Z,3.00
2022-12-16T05:49:15.604Z,3.00
2022-12-16T05:51:57.436Z,3.00
2022-12-16T05:54:39.298Z,3.00
2022-12-16T05:57:20.825Z,3.00
2022-12-16T06:00:02.802Z,3.00
2022-12-16T06:02:55.344Z,2.90
2022-12-16T06:05:37.217Z,2.90
2022-12-16T06:08:19.587Z,3.00
2022-12-16T06:11:02.607Z,3.10
2022-12-16T06:13:44.684Z,3.10
2022-12-16T06:16:27.313Z,3.10
2022-12-16T06:19:10.563Z,3.00
2022-12-16T06:21:52.433Z,3.10
2022-12-16T06:24:34.560Z,3.00
2022-12-16T06:27:16.207Z,2.90
2022-12-16T06:29:58.036Z,3.00
2022-12-16T06:32:40.062Z,2.90
2022-12-16T06:35:23.922Z,2.80
2022-12-16T06:38:06.685Z,2.90
2022-12-16T06:40:48.723Z,2.80
2022-12-16T06:43:31.849Z,2.80
2022-12-16T06:46:14.200Z,2.80
2022-12-16T06:48:56.254Z,2.80
2022-12-16T06:51:39.783Z,2.80
2022-12-16T06:54:27.123Z,2.80
2022-12-16T06:57:09.235Z,2.70
2022-12-16T06:59:50.940Z,2.70
2022-12-16T07:02:32.739Z,2.80
2022-12-16T07:05:15.291Z,2.80
2022-12-16T07:07:58.223Z,2.80
2022-12-16T07:10:39.923Z,2.90
2022-12-16T07:13:22.301Z,3.00
2022-12-16T07:16:05.056Z,3.00
2022-12-16T07:18:47.228Z,3.00
2022-12-16T07:21:29.628Z,3.20
2022-12-16T07:24:12.528Z,3.30
2022-12-16T07:26:54.216Z,3.10
2022-12-16T07:29:36.446Z,3.00
2022-12-16T07:32:18.336Z,3.10
2022-12-16T07:35:00.438Z,3.10
2022-12-16T07:37:42.836Z,3.20
2022-12-16T07:40:29.309Z,3.10
2022-12-16T07:43:11.396Z,3.20
2022-12-16T07:45:53.468Z,3.20
2022-12-16T07:48:37.615Z,3.40
2022-12-16T07:51:19.744Z,3.40
2022-12-16T07:54:01.639Z,3.40
2022-12-16T07:56:45.277Z,3.40
2022-12-16T07:59:28.750Z,3.50
2022-12-16T08:02:10.844Z,3.60
2022-12-16T08:04:58.178Z,3.70
2022-12-16T08:07:40.796Z,3.70
2022-12-16T08:10:22.942Z,3.90
2022-12-16T08:13:06.786Z,3.80
2022-12-16T08:16:00.222Z,3.70
2022-12-16T08:18:42.412Z,3.70
2022-12-16T08:21:24.372Z,3.80
2022-12-16T08:24:06.434Z,3.90
2022-12-16T08:26:48.569Z,3.90
2022-12-16T08:29:44.393Z,4.00
2022-12-16T08:32:27.319Z,3.80
2022-12-16T08:35:08.984Z,3.90
2022-12-16T08:37:51.007Z,3.80
2022-12-16T08:40:35.826Z,3.90
2022-12-16T08:43:19.082Z,4.00
2022-12-16T08:46:02.513Z,4.10
2022-12-16T08:48:53.708Z,4.10
2022-12-16T08:51:36.076Z,4.20
2022-12-16T08:54:18.480Z,4.30
2022-12-16T08:57:01.274Z,4.30
2022-12-16T08:59:43.270Z,4.30
2022-12-16T09:02:28.147Z,4.30
2022-12-16T09:05:10.423Z,4.30
2022-12-16T09:07:52.799Z,4.40
2022-12-16T09:10:40.425Z,4.50
2022-12-16T09:13:28.129Z,4.60
2022-12-16T09:16:14.434Z,4.60
2022-12-16T09:19:01.399Z,4.70
2022-12-16T09:21:43.555Z,4.60
2022-12-16T09:24:26.020Z,4.60
2022-12-16T09:27:10.432Z,4.60
2022-12-16T09:29:52.219Z,4.80
2022-12-16T09:32:34.069Z,4.80
2022-12-16T09:35:17.304Z,4.90
2022-12-16T09:38:06.373Z,5.00
2022-12-16T09:40:48.471Z,5.10
2022-12-16T09:43:43.676Z,5.30
2022-12-16T09:46:33.945Z,5.20
2022-12-16T09:49:22.321Z,5.30
2022-12-16T09:52:06.752Z,5.40
2022-12-16T09:54:59.196Z,5.20
2022-12-16T09:57:45.276Z,5.20
2022-12-16T10:00:50.673Z,5.30
2022-12-16T10:03:40.195Z,5.30
2022-12-16T10:06:30.139Z,5.50
2022-12-16T10:09:21.082Z,5.40
2022-12-16T10:12:16.660Z,5.50
2022-12-16T10:15:08.532Z,5.40
2022-12-16T10:17:50.872Z,5.50
2022-12-16T10:20:38.688Z,5.50
2022-12-16T10:23:29.842Z,5.50
2022-12-16T10:26:21.440Z,5.70
2022-12-16T10:29:05.946Z,5.70
2022-12-16T10:31:48.558Z,5.90
2022-12-16T10:34:33.453Z,6.10
2022-12-16T10:37:20.617Z,6.30
2022-12-16T10:40:22.277Z,6.50
2022-12-16T10:43:10.504Z,6.60
2022-12-16T10:45:56.789Z,6.80
2022-12-16T10:48:55.021Z,6.80
2022-12-16T10:51:50.375Z,6.90
2022-12-16T10:54:48.402Z,6.90
2022-12-16T10:57:37.829Z,7.00
2022-12-16T11:00:33.541Z,7.00
2022-12-16T11:03:15.829Z,7.00
2022-12-16T11:05:58.221Z,7.10
2022-12-16T11:08:46.128Z,7.20
2022-12-16T11:11:33.898Z,7.20
2022-12-16T11:14:34.516Z,7.20
2022-12-16T11:17:50.669Z,7.30
2022-12-16T11:20:36.306Z,7.50
2022-12-16T11:23:35.478Z,7.50
2022-12-16T11:26:37.362Z,7.60
2022-12-16T11:29:33.510Z,7.60
2022-12-16T11:32:38.127Z,7.70
2022-12-16T11:35:23.464Z,7.80
2022-12-16T11:38:08.149Z,7.80
2022-12-16T11:40:52.583Z,7.90
2022-12-16T11:43:36.846Z,8.00
2022-12-16T11:46:24.052Z,7.90
2022-12-16T11:49:11.310Z,8.00
2022-12-16T11:52:08.055Z,7.90
2022-12-16T11:55:02.297Z,7.90
2022-12-16T11:57:54.836Z,8.00
2022-12-16T12:00:37.816Z,7.90
2022-12-16T12:03:25.541Z,7.90
2022-12-16T12:06:19.639Z,8.00
2022-12-16T12:09:12.284Z,8.00
2022-12-16T12:11:57.346Z,8.00
2022-12-16T12:14:53.881Z,8.10
2022-12-16T12:18:02.675Z,8.00
2022-12-16T12:21:02.036Z,8.10
2022-12-16T12:23:57.942Z,8.10
2022-12-16T12:26:48.297Z,8.00
2022-12-16T12:29:37.304Z,8.10
2022-12-16T12:32:26.434Z,8.00
2022-12-16T12:35:15.769Z,8.00
2022-12-16T12:38:10.122Z,8.10
2022-12-16T12:41:10.657Z,8.00
2022-12-16T12:43:59.662Z,8.10
2022-12-16T12:46:47.671Z,8.20
2022-12-16T12:49:38.555Z,8.20
2022-12-16T12:52:30.137Z,8.30
2022-12-16T12:55:19.463Z,8.20
2022-12-16T12:58:05.593Z,8.20
2022-12-16T13:00:52.124Z,8.30
2022-12-16T13:03:44.031Z,8.40
2022-12-16T13:06:26.958Z,8.50
2022-12-16T13:09:16.943Z,8.50
2022-12-16T13:12:19.183Z,8.50
2022-12-16T13:15:22.469Z,8.40
2022-12-16T13:18:49.166Z,8.60
2022-12-16T13:22:02.863Z,8.60
2022-12-16T13:25:00.818Z,8.50
2022-12-16T13:27:44.604Z,8.60
2022-12-16T13:30:42.117Z,8.60
2022-12-16T13:33:27.355Z,8.60
2022-12-16T13:36:13.905Z,8.60
2022-12-16T13:39:03.185Z,8.60
2022-12-16T13:42:07.367Z,8.60
2022-12-16T13:45:17.191Z,8.50
2022-12-16T13:48:19.198Z,8.50
2022-12-16T13:51:19.078Z,8.40
2022-12-16T13:54:06.017Z,8.40
2022-12-16T13:56:53.408Z,8.50
2022-12-16T13:59:42.674Z,8.50
2022-12-16T14:02:46.196Z,8.50
2022-12-16T14:05:44.386Z,8.50
2022-12-16T14:08:34.541Z,8.50
2022-12-16T14:11:20.491Z,8.50
2022-12-16T14:14:11.361Z,8.50
2022-12-16T14:17:02.685Z,8.50
2022-12-16T14:19:52.786Z,8.40
2022-12-16T14:22:47.921Z,8.40
2022-12-16T14:25:35.596Z,8.30
2022-12-16T14:28:17.455Z,8.30
2022-12-16T14:31:00.087Z,8.20
2022-12-16T14:33:44.008Z,8.10
2022-12-16T14:36:38.908Z,8.00
2022-12-16T14:39:29.211Z,7.90
2022-12-16T14:42:11.740Z,7.90
2022-12-16T14:44:54.206Z,7.80
2022-12-16T14:47:41.561Z,7.60
2022-12-16T14:50:37.975Z,7.60
2022-12-16T14:53:32.681Z,7.40
2022-12-16T14:56:38.637Z,7.50
2022-12-16T14:59:38.761Z,7.50
2022-12-16T15:02:30.803Z,7.30
2022-12-16T15:05:12.822Z,7.40
2022-12-16T15:07:57.178Z,7.40
2022-12-16T15:10:42.953Z,7.40
2022-12-16T15:13:33.550Z,7.40
2022-12-16T15:16:16.279Z,7.40
2022-12-16T15:19:02.238Z,7.50
2022-12-16T15:21:44.426Z,7.50
2022-12-16T15:24:27.978Z,7.30
2022-12-16T15:27:30.060Z,7.20
2022-12-16T15:30:13.807Z,7.20
2022-12-16T15:32:55.794Z,7.30
2022-12-16T15:35:49.322Z,7.30
2022-12-16T15:38:36.136Z,7.30
2022-12-16T15:41:19.250Z,7.00
2022-12-16T15:44:01.461Z,7.10
2022-12-16T15:46:48.634Z,7.00
2022-12-16T15:49:38.294Z,6.90
2022-12-16T15:52:20.557Z,6.80
2022-12-16T15:55:09.307Z,6.90
2022-12-16T15:57:53.453Z,6.80
2022-12-16T16:00:41.853Z,6.80
2022-12-16T16:03:37.545Z,6.90
2022-12-16T16:06:19.869Z,7.00
2022-12-16T16:09:01.685Z,7.00
2022-12-16T16:11:43.583Z,7.00
2022-12-16T16:14:25.982Z,7.00
2022-12-16T16:17:07.851Z,7.00
2022-12-16T16:19:51.641Z,7.10
2022-12-16T16:22:37.090Z,7.10
2022-12-16T16:25:19.468Z,7.10
2022-12-16T16:28:01.842Z,7.10
2022-12-16T16:30:43.925Z,6.90
2022-12-16T16:33:25.798Z,6.90
2022-12-16T16:36:08.862Z,6.80
2022-12-16T16:38:50.841Z,6.70
2022-12-16T16:41:35.413Z,6.70
2022-12-16T16:44:19.777Z,6.70
2022-12-16T16:47:02.809Z,6.70
2022-12-16T16:49:49.430Z,6.60
2022-12-16T16:52:35.030Z,6.70
2022-12-16T16:55:17.055Z,6.50
2022-12-16T16:57:58.723Z,6.40
2022-12-16T17:00:40.856Z,6.50
2022-12-16T17:03:23.337Z,6.50
2022-12-16T17:06:05.143Z,6.40
2022-12-16T17:08:48.930Z,6.30
2022-12-16T17:11:36.651Z,6.30
2022-12-16T17:14:30.223Z,6.30
2022-12-16T17:17:12.323Z,6.30
2022-12-16T17:19:54.911Z,6.30
2022-12-16T17:22:37.071Z,6.40
2022-12-16T17:25:20.196Z,6.50
2022-12-16T17:28:03.760Z,6.60
2022-12-16T17:30:47.924Z,6.60
2022-12-16T17:33:30.051Z,6.50
2022-12-16T17:36:12.106Z,6.70
2022-12-16T17:38:57.358Z,6.70
2022-12-16T17:41:41.609Z,6.80
2022-12-16T17:44:23.622Z,6.70
2022-12-16T17:47:06.196Z,6.80
2022-12-16T17:49:48.835Z,6.80
2022-12-16T17:52:30.979Z,6.80
2022-12-16T17:55:12.768Z,6.80
2022-12-16T17:57:55.701Z,6.90
2022-12-16T18:00:37.753Z,7.00
2022-12-16T18:03:19.978Z,6.90
2022-12-16T18:06:02.504Z,6.80
2022-12-16T18:08:50.252Z,6.70
2022-12-16T18:11:37.131Z,6.70
2022-12-16T18:14:22.243Z,6.70
2022-12-16T18:17:04.177Z,6.60
2022-12-16T18:19:46.028Z,6.60
2022-12-16T18:22:27.968Z,6.50
2022-12-16T18:25:10.306Z,6.50
2022-12-16T18:27:52.580Z,6.50
2022-12-16T18:30:36.281Z,6.40
2022-12-16T18:33:18.626Z,6.30
2022-12-16T18:36:01.099Z,6.30
2022-12-16T18:38:44.147Z,6.20
2022-12-16T18:41:33.366Z,6.30
2022-12-16T18:44:15.483Z,6.50
2022-12-16T18:46:59.163Z,6.30
2022-12-16T18:49:41.563Z,6.20
2022-12-16T18:52:23.622Z,6.20
2022-12-16T18:55:05.787Z,6.10
2022-12-16T18:57:47.840Z,6.10
2022-12-16T19:00:31.110Z,6.20
2022-12-16T19:03:14.543Z,6.30
2022-12-16T19:05:56.433Z,6.30
2022-12-16T19:08:38.717Z,6.40
2022-12-16T19:11:20.549Z,6.30
2022-12-16T19:14:02.621Z,6.30
2022-12-16T19:16:45.256Z,6.40
2022-12-16T19:19:28.523Z,6.50
2022-12-16T19:22:11.011Z,6.60
2022-12-16T19:24:58.331Z,6.60
2022-12-16T19:27:40.273Z,6.70
2022-12-16T19:30:21.574Z,6.90
2022-12-16T19:33:07.424Z,7.00
2022-12-16T19:35:53.676Z,7.00
2022-12-16T19:38:35.457Z,7.10
2022-12-16T19:41:17.390Z,7.10
2022-12-16T19:44:05.333Z,7.20
2022-12-16T19:46:48.514Z,7.20
2022-12-16T19:49:30.681Z,7.20
2022-12-16T19:52:25.637Z,7.30
2022-12-16T19:55:07.441Z,7.40
2022-12-16T19:57:50.085Z,7.50
2022-12-16T20:00:37.889Z,7.50
2022-12-16T20:03:20.258Z,7.60
2022-12-16T20:06:02.330Z,7.60
2022-12-16T20:08:47.134Z,7.70
2022-12-16T20:11:28.950Z,7.80
2022-12-16T20:14:12.242Z,7.80
2022-12-16T20:16:54.501Z,7.80
2022-12-16T20:19:38.646Z,7.80
2022-12-16T20:22:28.908Z,7.80
2022-12-16T20:25:12.331Z,7.80
2022-12-16T20:27:54.351Z,7.90
2022-12-16T20:30:39.151Z,7.90
2022-12-16T20:33:21.693Z,7.80
2022-12-16T20:36:14.120Z,7.80
2022-12-16T20:38:56.060Z,7.80
2022-12-16T20:41:39.725Z,7.80
2022-12-16T20:44:27.068Z,7.80
2022-12-16T20:47:08.740Z,7.80
2022-12-16T20:49:51.324Z,7.70
2022-12-16T20:52:33.985Z,7.70
2022-12-16T20:55:15.716Z,7.70
2022-12-16T20:57:58.821Z,7.70
2022-12-16T21:00:40.523Z,7.70
2022-12-16T21:03:26.206Z,7.70
2022-12-16T21:06:07.772Z,7.70
2022-12-16T21:08:50.126Z,7.80
2022-12-16T21:11:32.592Z,7.70
2022-12-16T21:14:16.144Z,7.80
2022-12-16T21:16:59.324Z,7.70
2022-12-16T21:19:38.334Z,7.70
2022-12-16T21:22:20.036Z,7.60
2022-12-16T21:25:02.280Z,7.60
2022-12-16T21:27:44.578Z,7.60
2022-12-16T21:30:29.403Z,7.50
2022-12-16T21:33:11.436Z,7.50
2022-12-16T21:35:53.003Z,7.50
2022-12-16T21:38:46.485Z,7.40
2022-12-16T21:41:28.449Z,7.40
2022-12-16T21:44:10.281Z,7.40
2022-12-16T21:47:05.228Z,7.40
2022-12-16T21:49:47.129Z,7.50
2022-12-16T21:52:28.740Z,7.40
2022-12-16T21:55:10.900Z,7.20
2022-12-16T21:57:53.356Z,7.10
2022-12-16T22:00:35.901Z,7.10
2022-12-16T22:03:19.522Z,7.10
2022-12-16T22:06:01.162Z,7.10
2022-12-16T22:08:43.305Z,7.10
2022-12-16T22:11:28.278Z,7.10
2022-12-16T22:14:09.793Z,7.00
2022-12-16T22:16:51.768Z,7.00
2022-12-16T22:19:34.994Z,6.70
2022-12-16T22:22:21.943Z,6.50
2022-12-16T22:25:04.878Z,6.40
2022-12-16T22:27:45.398Z,6.40
2022-12-16T22:30:28.401Z,6.40
2022-12-16T22:33:10.453Z,6.30
2022-12-16T22:35:54.260Z,6.40
2022-12-16T22:38:37.422Z,6.50
2022-12-16T22:41:20.156Z,6.60
2022-12-16T22:44:02.094Z,6.80
2022-12-16T22:46:44.249Z,6.80
2022-12-16T22:49:26.307Z,7.00
2022-12-16T22:52:09.598Z,7.00
2022-12-16T22:54:51.479Z,7.00
2022-12-16T22:57:35.166Z,7.00
2022-12-16T23:00:17.060Z,7.10
2022-12-16T23:02:59.241Z,7.00
2022-12-16T23:05:41.209Z,7.00
2022-12-16T23:08:25.054Z,7.00
2022-12-16T23:11:13.054Z,7.00
2022-12-16T23:14:03.288Z,7.20
2022-12-16T23:16:45.510Z,7.20
2022-12-16T23:19:27.405Z,7.30
2022-12-16T23:22:09.203Z,7.30
2022-12-16T23:24:53.349Z,7.40
2022-12-16T23:27:35.594Z,7.30
2022-12-16T23:30:17.619Z,7.30
2022-12-16T23:33:01.585Z,7.30
2022-12-16T23:35:43.729Z,7.40
2022-12-16T23:38:26.120Z,7.40
2022-12-16T23:41:14.428Z,7.50
2022-12-16T23:43:56.313Z,7.50
2022-12-16T23:46:38.438Z,7.60
2022-12-16T23:49:20.702Z,7.70
2022-12-16T23:52:02.497Z,7.70
2022-12-16T23:54:44.424Z,7.70
2022-12-16T23:57:27.470Z,7.80
